Time;durP1;ratioP1;P1;durP2;ratioP2;P2;SDS_P1;SDS_P2;PMS_P1;PMS_P2;Temp;Humidity;BMP_temperature;BMP_pressure;BME280_temperature;BME280_humidity;BME280_pressure;Samples;Min_cycle;Max_cycle;Signal;HPM_P1;HPM_P2
2022/09/15 21:33:55;;;;;;;5.03;4.63;;;15.50;99.90;;;;;;5046733;28;51917;-68
2022/09/15 21:36:25;;;;;;;8.67;5.77;;;15.60;99.90;;;;;;5052673;28;20802;-68
2022/09/15 21:38:55;;;;;;;5.30;4.80;;;15.50;99.90;;;;;;5047946;28;20680;-68
2022/09/15 21:41:25;;;;;;;6.87;4.90;;;15.60;99.90;;;;;;5048669;28;20597;-68
2022/09/15 21:43:54;;;;;;;6.63;5.30;;;15.60;99.90;;;;;;5066215;28;20675;-69
2022/09/15 21:46:24;;;;;;;5.63;4.90;;;15.60;99.90;;;;;;5068500;28;20614;-68
2022/09/15 21:48:55;;;;;;;4.80;4.50;;;15.60;99.90;;;;;;5068707;28;20668;-68
2022/09/15 21:51:24;;;;;;;6.43;5.13;;;15.50;99.90;;;;;;5068512;28;20590;-69
2022/09/15 21:53:52;;;;;;;5.63;5.03;;;15.60;99.90;;;;;;5057923;28;21455;-70
2022/09/15 21:56:21;;;;;;;5.00;4.60;;;15.60;99.90;;;;;;5047659;28;20653;-68
2022/09/15 21:58:49;;;;;;;5.93;5.33;;;15.60;99.90;;;;;;5047660;28;20627;-66
2022/09/15 22:01:18;;;;;;;6.23;5.63;;;15.50;99.90;;;;;;5048178;28;20616;-68
2022/09/15 22:03:50;;;;;;;6.13;5.50;;;15.50;99.90;;;;;;5046916;28;21170;-67
2022/09/15 22:06:20;;;;;;;6.87;4.83;;;15.60;99.90;;;;;;5048525;28;20581;-67
2022/09/15 22:08:48;;;;;;;5.43;4.93;;;15.60;99.90;;;;;;5048465;28;20599;-67
2022/09/15 22:11:16;;;;;;;5.00;4.50;;;15.70;99.90;;;;;;5048474;28;20621;-67
2022/09/15 22:13:44;;;;;;;9.40;5.20;;;15.70;99.90;;;;;;5047660;28;21220;-67
2022/09/15 22:16:14;;;;;;;4.80;4.50;;;15.70;99.90;;;;;;5048268;28;20586;-67
2022/09/15 22:18:43;;;;;;;4.70;4.40;;;15.80;99.90;;;;;;5048296;28;21074;-67
2022/09/15 22:21:13;;;;;;;5.60;5.10;;;15.80;99.90;;;;;;5047489;28;20990;-67
2022/09/15 22:23:43;;;;;;;4.70;4.30;;;15.80;99.90;;;;;;5031012;28;20638;-67
2022/09/15 22:26:13;;;;;;;6.70;5.40;;;15.80;99.90;;;;;;5031113;28;21005;-67
2022/09/15 22:28:42;;;;;;;6.93;5.43;;;15.80;99.90;;;;;;5048018;28;20594;-67
2022/09/15 22:31:11;;;;;;;5.73;5.27;;;15.80;99.90;;;;;;5047224;28;20634;-67
2022/09/15 22:33:41;;;;;;;5.70;5.30;;;15.70;99.90;;;;;;5063810;28;21227;-67
2022/09/15 22:36:13;;;;;;;6.43;5.53;;;15.70;99.90;;;;;;5067101;28;20596;-66
2022/09/15 22:38:43;;;;;;;6.33;5.30;;;15.50;99.90;;;;;;5067643;28;20573;-67
2022/09/15 22:41:13;;;;;;;7.63;6.07;;;15.50;99.90;;;;;;5067051;28;20683;-66
2022/09/15 22:43:42;;;;;;;6.60;6.00;;;15.40;99.90;;;;;;5061160;28;20585;-66
2022/09/15 22:46:11;;;;;;;6.27;5.67;;;15.30;99.90;;;;;;5053560;28;21254;-66
2022/09/15 22:48:39;;;;;;;6.60;5.30;;;15.30;99.90;;;;;;5053596;28;21199;-66
2022/09/15 22:51:07;;;;;;;6.50;5.87;;;15.20;99.90;;;;;;5054261;28;20586;-66
2022/09/15 22:53:35;;;;;;;5.87;5.33;;;15.20;99.90;;;;;;5052614;28;20710;-66
2022/09/15 22:56:07;;;;;;;10.73;5.90;;;15.20;99.90;;;;;;5053395;28;20629;-67
2022/09/15 22:58:36;;;;;;;5.83;5.33;;;15.20;99.90;;;;;;5053299;28;21087;-66
2022/09/15 23:01:05;;;;;;;7.03;5.60;;;15.00;99.90;;;;;;5053359;28;20672;-67
2022/09/15 23:03:33;;;;;;;6.67;5.57;;;14.90;99.90;;;;;;5052802;28;20631;-66
2022/09/15 23:06:02;;;;;;;6.33;5.43;;;14.90;99.90;;;;;;5053487;28;20619;-67
2022/09/15 23:08:30;;;;;;;7.23;5.47;;;14.80;99.90;;;;;;5053581;28;20602;-66
2022/09/15 23:11:04;;;;;;;10.23;7.03;;;14.80;99.90;;;;;;5052150;28;20618;-66
2022/09/15 23:13:33;;;;;;;10.10;7.00;;;14.80;99.90;;;;;;5052832;28;20660;-66
2022/09/15 23:16:01;;;;;;;6.47;5.93;;;14.80;99.90;;;;;;5051650;28;21237;-66
2022/09/15 23:18:30;;;;;;;10.73;6.63;;;14.80;99.90;;;;;;5035307;28;20626;-66
2022/09/15 23:21:00;;;;;;;8.00;6.07;;;14.80;99.90;;;;;;5052215;28;21203;-66
2022/09/15 23:23:28;;;;;;;6.77;5.73;;;14.80;99.90;;;;;;5052161;28;20623;-66
2022/09/15 23:25:56;;;;;;;6.10;5.50;;;14.80;99.90;;;;;;5052595;28;20609;-66
2022/09/15 23:28:25;;;;;;;6.70;6.13;;;14.70;99.90;;;;;;5052699;28;20615;-66
2022/09/15 23:30:55;;;;;;;13.90;6.53;;;14.70;99.90;;;;;;5051835;28;20672;-66
2022/09/15 23:33:25;;;;;;;10.23;6.27;;;14.70;99.90;;;;;;5047794;28;20698;-67
2022/09/15 23:35:54;;;;;;;7.87;6.40;;;14.70;99.90;;;;;;5032112;28;20616;-66
2022/09/15 23:38:22;;;;;;;12.40;6.67;;;14.70;99.90;;;;;;5039496;28;20602;-67
2022/09/15 23:40:50;;;;;;;7.33;6.60;;;14.60;99.90;;;;;;5052941;28;20619;-67
2022/09/15 23:43:18;;;;;;;7.10;6.40;;;14.50;99.90;;;;;;5053006;28;20629;-67
2022/09/15 23:45:49;;;;;;;16.57;7.13;;;14.50;99.90;;;;;;5052445;28;20980;-67
2022/09/15 23:48:17;;;;;;;8.33;5.97;;;14.40;99.90;;;;;;5052935;28;20615;-67
2022/09/15 23:50:45;;;;;;;8.40;6.17;;;14.40;99.90;;;;;;5050850;28;21152;-66
2022/09/15 23:53:14;;;;;;;16.53;6.70;;;14.30;99.90;;;;;;5052620;28;21038;-66
2022/09/15 23:55:41;;;;;;;6.67;6.10;;;14.10;99.90;;;;;;5050534;28;20984;-66
2022/09/15 23:58:11;;;;;;;6.70;6.20;;;14.10;99.90;;;;;;5050539;28;20656;-66
